sensor_id;sensor_type;location;lat;lon;timestamp;P1;durP1;ratioP1;P2;durP2;ratioP2
5054;SDS011;13829;48.990;8.346;2023-01-29T00:01:56;6.60;;;5.90;;
5054;SDS011;13829;48.990;8.346;2023-01-29T00:04:23;7.43;;;5.93;;
5054;SDS011;13829;48.990;8.346;2023-01-29T00:06:50;7.27;;;6.30;;
5054;SDS011;13829;48.990;8.346;2023-01-29T00:09:18;7.90;;;5.70;;
5054;SDS011;13829;48.990;8.346;2023-01-29T00:11:45;6.37;;;5.43;;
5054;SDS011;13829;48.990;8.346;2023-01-29T00:14:12;8.03;;;6.57;;
5054;SDS011;13829;48.990;8.346;2023-01-29T00:16:40;8.53;;;5.97;;
5054;SDS011;13829;48.990;8.346;2023-01-29T00:19:07;14.50;;;10.60;;
5054;SDS011;13829;48.990;8.346;2023-01-29T00:21:34;17.57;;;13.80;;
5054;SDS011;13829;48.990;8.346;2023-01-29T00:24:01;8.40;;;7.00;;
5054;SDS011;13829;48.990;8.346;2023-01-29T00:26:29;9.03;;;7.03;;
5054;SDS011;13829;48.990;8.346;2023-01-29T00:28:56;8.57;;;7.10;;
5054;SDS011;13829;48.990;8.346;2023-01-29T00:31:24;6.73;;;5.77;;
5054;SDS011;13829;48.990;8.346;2023-01-29T00:33:52;9.70;;;7.40;;
5054;SDS011;13829;48.990;8.346;2023-01-29T00:36:20;8.30;;;6.90;;
5054;SDS011;13829;48.990;8.346;2023-01-29T00:38:53;6.83;;;5.90;;
5054;SDS011;13829;48.990;8.346;2023-01-29T00:41:22;7.80;;;6.63;;
5054;SDS011;13829;48.990;8.346;2023-01-29T00:44:09;8.57;;;6.00;;
5054;SDS011;13829;48.990;8.346;2023-01-29T00:46:54;8.40;;;6.97;;
5054;SDS011;13829;48.990;8.346;2023-01-29T00:49:22;8.23;;;6.57;;
5054;SDS011;13829;48.990;8.346;2023-01-29T00:51:50;6.77;;;5.27;;
5054;SDS011;13829;48.990;8.346;2023-01-29T00:54:31;7.23;;;6.37;;
5054;SDS011;13829;48.990;8.346;2023-01-29T00:56:58;8.43;;;5.90;;
5054;SDS011;13829;48.990;8.346;2023-01-29T00:59:25;6.30;;;5.43;;
5054;SDS011;13829;48.990;8.346;2023-01-29T01:01:52;6.00;;;5.40;;
5054;SDS011;13829;48.990;8.346;2023-01-29T01:04:38;6.27;;;5.67;;
5054;SDS011;13829;48.990;8.346;2023-01-29T01:07:05;6.33;;;5.50;;
5054;SDS011;13829;48.990;8.346;2023-01-29T01:09:33;7.53;;;6.07;;
5054;SDS011;13829;48.990;8.346;2023-01-29T01:12:18;6.77;;;5.50;;
5054;SDS011;13829;48.990;8.346;2023-01-29T01:14:45;6.43;;;5.63;;
5054;SDS011;13829;48.990;8.346;2023-01-29T01:17:13;5.97;;;5.10;;
5054;SDS011;13829;48.990;8.346;2023-01-29T01:19:41;6.93;;;5.50;;
5054;SDS011;13829;48.990;8.346;2023-01-29T01:22:08;6.93;;;6.13;;
5054;SDS011;13829;48.990;8.346;2023-01-29T01:24:36;5.77;;;5.13;;
5054;SDS011;13829;48.990;8.346;2023-01-29T01:27:04;6.60;;;5.50;;
5054;SDS011;13829;48.990;8.346;2023-01-29T01:29:31;6.73;;;5.47;;
5054;SDS011;13829;48.990;8.346;2023-01-29T01:31:58;7.67;;;5.80;;
5054;SDS011;13829;48.990;8.346;2023-01-29T01:34:25;6.40;;;5.73;;
5054;SDS011;13829;48.990;8.346;2023-01-29T01:36:54;7.57;;;5.97;;
5054;SDS011;13829;48.990;8.346;2023-01-29T01:39:21;7.77;;;5.77;;
5054;SDS011;13829;48.990;8.346;2023-01-29T01:41:49;7.40;;;5.97;;
5054;SDS011;13829;48.990;8.346;2023-01-29T01:47:19;7.57;;;6.30;;
5054;SDS011;13829;48.990;8.346;2023-01-29T01:49:53;7.37;;;6.13;;
5054;SDS011;13829;48.990;8.346;2023-01-29T01:52:27;9.00;;;6.50;;
5054;SDS011;13829;48.990;8.346;2023-01-29T01:54:57;7.07;;;5.83;;
5054;SDS011;13829;48.990;8.346;2023-01-29T01:57:25;7.40;;;6.50;;
5054;SDS011;13829;48.990;8.346;2023-01-29T01:59:58;7.13;;;6.03;;
5054;SDS011;13829;48.990;8.346;2023-01-29T02:02:34;7.37;;;5.67;;
5054;SDS011;13829;48.990;8.346;2023-01-29T02:05:20;7.50;;;5.67;;
5054;SDS011;13829;48.990;8.346;2023-01-29T02:08:06;7.63;;;5.90;;
5054;SDS011;13829;48.990;8.346;2023-01-29T02:10:52;7.50;;;5.80;;
5054;SDS011;13829;48.990;8.346;2023-01-29T02:13:20;8.40;;;6.30;;
5054;SDS011;13829;48.990;8.346;2023-01-29T02:15:48;7.30;;;5.70;;
5054;SDS011;13829;48.990;8.346;2023-01-29T02:18:15;8.07;;;6.27;;
5054;SDS011;13829;48.990;8.346;2023-01-29T02:20:48;8.03;;;6.30;;
5054;SDS011;13829;48.990;8.346;2023-01-29T02:23:45;7.10;;;5.73;;
5054;SDS011;13829;48.990;8.346;2023-01-29T02:26:39;7.63;;;6.30;;
5054;SDS011;13829;48.990;8.346;2023-01-29T02:29:21;8.90;;;6.40;;
5054;SDS011;13829;48.990;8.346;2023-01-29T02:32:03;7.47;;;5.93;;
5054;SDS011;13829;48.990;8.346;2023-01-29T02:34:45;7.23;;;6.17;;
5054;SDS011;13829;48.990;8.346;2023-01-29T02:37:44;7.67;;;6.10;;
5054;SDS011;13829;48.990;8.346;2023-01-29T02:40:22;8.80;;;6.70;;
5054;SDS011;13829;48.990;8.346;2023-01-29T02:42:59;7.70;;;5.83;;
5054;SDS011;13829;48.990;8.346;2023-01-29T02:45:39;9.17;;;6.27;;
5054;SDS011;13829;48.990;8.346;2023-01-29T02:48:17;8.37;;;5.77;;
5054;SDS011;13829;48.990;8.346;2023-01-29T02:50:48;6.87;;;6.00;;
5054;SDS011;13829;48.990;8.346;2023-01-29T02:53:24;8.87;;;6.07;;
5054;SDS011;13829;48.990;8.346;2023-01-29T02:56:02;7.63;;;6.20;;
5054;SDS011;13829;48.990;8.346;2023-01-29T02:58:37;8.57;;;5.40;;
5054;SDS011;13829;48.990;8.346;2023-01-29T03:01:10;8.50;;;6.37;;
5054;SDS011;13829;48.990;8.346;2023-01-29T03:03:44;7.10;;;6.00;;
5054;SDS011;13829;48.990;8.346;2023-01-29T03:06:17;11.00;;;6.10;;
5054;SDS011;13829;48.990;8.346;2023-01-29T03:08:53;7.07;;;6.30;;
5054;SDS011;13829;48.990;8.346;2023-01-29T03:11:26;6.73;;;5.87;;
5054;SDS011;13829;48.990;8.346;2023-01-29T03:14:02;7.90;;;5.93;;
5054;SDS011;13829;48.990;8.346;2023-01-29T03:16:39;7.50;;;6.40;;
5054;SDS011;13829;48.990;8.346;2023-01-29T03:19:11;7.13;;;5.57;;
5054;SDS011;13829;48.990;8.346;2023-01-29T03:21:45;7.10;;;5.60;;
5054;SDS011;13829;48.990;8.346;2023-01-29T03:24:24;9.57;;;6.20;;
5054;SDS011;13829;48.990;8.346;2023-01-29T03:27:18;7.20;;;5.83;;
5054;SDS011;13829;48.990;8.346;2023-01-29T03:30:06;6.53;;;5.60;;
5054;SDS011;13829;48.990;8.346;2023-01-29T03:33:01;7.50;;;5.90;;
5054;SDS011;13829;48.990;8.346;2023-01-29T03:35:34;6.97;;;5.37;;
5054;SDS011;13829;48.990;8.346;2023-01-29T03:38:12;8.37;;;6.33;;
5054;SDS011;13829;48.990;8.346;2023-01-29T03:40:43;8.47;;;5.87;;
5054;SDS011;13829;48.990;8.346;2023-01-29T03:43:19;9.80;;;6.43;;
5054;SDS011;13829;48.990;8.346;2023-01-29T03:46:02;8.10;;;5.83;;
5054;SDS011;13829;48.990;8.346;2023-01-29T03:48:35;7.40;;;6.37;;
5054;SDS011;13829;48.990;8.346;2023-01-29T03:51:13;9.60;;;6.53;;
5054;SDS011;13829;48.990;8.346;2023-01-29T03:53:50;7.97;;;5.50;;
5054;SDS011;13829;48.990;8.346;2023-01-29T03:56:26;8.23;;;5.40;;
5054;SDS011;13829;48.990;8.346;2023-01-29T03:59:11;7.30;;;5.77;;
5054;SDS011;13829;48.990;8.346;2023-01-29T04:01:51;6.27;;;5.53;;
5054;SDS011;13829;48.990;8.346;2023-01-29T04:04:26;6.90;;;5.87;;
5054;SDS011;13829;48.990;8.346;2023-01-29T04:06:59;6.97;;;5.57;;
5054;SDS011;13829;48.990;8.346;2023-01-29T04:09:36;7.43;;;6.23;;
5054;SDS011;13829;48.990;8.346;2023-01-29T04:12:10;8.33;;;6.47;;
5054;SDS011;13829;48.990;8.346;2023-01-29T04:14:43;7.73;;;5.77;;
5054;SDS011;13829;48.990;8.346;2023-01-29T04:17:13;7.57;;;6.40;;
5054;SDS011;13829;48.990;8.346;2023-01-29T04:19:46;7.10;;;5.83;;
5054;SDS011;13829;48.990;8.346;2023-01-29T04:22:14;6.00;;;5.40;;
5054;SDS011;13829;48.990;8.346;2023-01-29T04:24:47;7.60;;;5.30;;
5054;SDS011;13829;48.990;8.346;2023-01-29T04:27:19;6.87;;;5.60;;
5054;SDS011;13829;48.990;8.346;2023-01-29T04:30:01;8.30;;;5.80;;
5054;SDS011;13829;48.990;8.346;2023-01-29T04:32:46;7.17;;;5.50;;
5054;SDS011;13829;48.990;8.346;2023-01-29T04:35:30;8.07;;;5.90;;
5054;SDS011;13829;48.990;8.346;2023-01-29T04:38:10;7.27;;;5.33;;
5054;SDS011;13829;48.990;8.346;2023-01-29T04:40:49;7.93;;;5.80;;
5054;SDS011;13829;48.990;8.346;2023-01-29T04:43:24;6.40;;;5.20;;
5054;SDS011;13829;48.990;8.346;2023-01-29T04:46:03;7.20;;;6.20;;
5054;SDS011;13829;48.990;8.346;2023-01-29T04:48:44;9.43;;;6.57;;
5054;SDS011;13829;48.990;8.346;2023-01-29T04:51:33;7.83;;;6.33;;
5054;SDS011;13829;48.990;8.346;2023-01-29T04:54:16;8.73;;;6.50;;
5054;SDS011;13829;48.990;8.346;2023-01-29T04:57:00;10.30;;;7.10;;
5054;SDS011;13829;48.990;8.346;2023-01-29T04:59:40;10.17;;;6.57;;
5054;SDS011;13829;48.990;8.346;2023-01-29T05:02:13;7.73;;;6.53;;
5054;SDS011;13829;48.990;8.346;2023-01-29T05:04:40;7.87;;;6.07;;
5054;SDS011;13829;48.990;8.346;2023-01-29T05:07:13;6.93;;;5.83;;
5054;SDS011;13829;48.990;8.346;2023-01-29T05:09:43;8.70;;;6.50;;
5054;SDS011;13829;48.990;8.346;2023-01-29T05:12:13;7.80;;;6.30;;
5054;SDS011;13829;48.990;8.346;2023-01-29T05:14:43;6.17;;;5.37;;
5054;SDS011;13829;48.990;8.346;2023-01-29T05:17:13;6.93;;;5.70;;
5054;SDS011;13829;48.990;8.346;2023-01-29T05:19:43;7.27;;;5.70;;
5054;SDS011;13829;48.990;8.346;2023-01-29T05:22:14;6.70;;;5.70;;
5054;SDS011;13829;48.990;8.346;2023-01-29T05:24:46;6.77;;;5.47;;
5054;SDS011;13829;48.990;8.346;2023-01-29T05:27:15;7.80;;;5.63;;
5054;SDS011;13829;48.990;8.346;2023-01-29T05:30:02;6.63;;;5.40;;
5054;SDS011;13829;48.990;8.346;2023-01-29T05:32:31;7.20;;;5.20;;
5054;SDS011;13829;48.990;8.346;2023-01-29T05:34:58;6.23;;;5.20;;
5054;SDS011;13829;48.990;8.346;2023-01-29T05:37:26;7.13;;;5.50;;
5054;SDS011;13829;48.990;8.346;2023-01-29T05:39:53;6.77;;;5.57;;
5054;SDS011;13829;48.990;8.346;2023-01-29T05:42:20;6.20;;;5.33;;
5054;SDS011;13829;48.990;8.346;2023-01-29T05:44:48;6.07;;;5.03;;
5054;SDS011;13829;48.990;8.346;2023-01-29T05:47:17;6.37;;;5.77;;
5054;SDS011;13829;48.990;8.346;2023-01-29T05:49:44;6.80;;;5.37;;
5054;SDS011;13829;48.990;8.346;2023-01-29T05:52:11;7.30;;;5.70;;
5054;SDS011;13829;48.990;8.346;2023-01-29T05:54:39;9.53;;;5.63;;
5054;SDS011;13829;48.990;8.346;2023-01-29T05:57:06;6.87;;;5.30;;
5054;SDS011;13829;48.990;8.346;2023-01-29T05:59:33;6.80;;;5.40;;
5054;SDS011;13829;48.990;8.346;2023-01-29T06:02:00;7.07;;;5.70;;
5054;SDS011;13829;48.990;8.346;2023-01-29T06:04:27;6.53;;;5.90;;
5054;SDS011;13829;48.990;8.346;2023-01-29T06:06:54;6.80;;;5.70;;
5054;SDS011;13829;48.990;8.346;2023-01-29T06:09:21;6.97;;;6.17;;
5054;SDS011;13829;48.990;8.346;2023-01-29T06:11:49;8.53;;;5.93;;
5054;SDS011;13829;48.990;8.346;2023-01-29T06:14:16;7.03;;;6.20;;
5054;SDS011;13829;48.990;8.346;2023-01-29T06:16:43;8.43;;;5.73;;
5054;SDS011;13829;48.990;8.346;2023-01-29T06:19:10;6.60;;;5.70;;
5054;SDS011;13829;48.990;8.346;2023-01-29T06:21:37;7.93;;;5.40;;
5054;SDS011;13829;48.990;8.346;2023-01-29T06:24:04;6.17;;;5.50;;
5054;SDS011;13829;48.990;8.346;2023-01-29T06:26:32;8.43;;;5.63;;
5054;SDS011;13829;48.990;8.346;2023-01-29T06:29:00;6.57;;;5.20;;
5054;SDS011;13829;48.990;8.346;2023-01-29T06:31:27;7.27;;;5.70;;
5054;SDS011;13829;48.990;8.346;2023-01-29T06:33:54;5.87;;;5.23;;
5054;SDS011;13829;48.990;8.346;2023-01-29T06:36:20;8.83;;;5.93;;
5054;SDS011;13829;48.990;8.346;2023-01-29T06:38:47;6.80;;;5.67;;
5054;SDS011;13829;48.990;8.346;2023-01-29T06:41:15;5.90;;;5.30;;
5054;SDS011;13829;48.990;8.346;2023-01-29T06:43:46;7.90;;;6.27;;
5054;SDS011;13829;48.990;8.346;2023-01-29T06:46:14;6.20;;;5.60;;
5054;SDS011;13829;48.990;8.346;2023-01-29T06:48:42;7.23;;;6.33;;
5054;SDS011;13829;48.990;8.346;2023-01-29T06:51:09;7.33;;;6.13;;
5054;SDS011;13829;48.990;8.346;2023-01-29T06:53:37;9.53;;;6.03;;
5054;SDS011;13829;48.990;8.346;2023-01-29T06:56:05;7.20;;;6.17;;
5054;SDS011;13829;48.990;8.346;2023-01-29T06:58:35;6.77;;;6.00;;
5054;SDS011;13829;48.990;8.346;2023-01-29T07:01:03;15.90;;;10.30;;
5054;SDS011;13829;48.990;8.346;2023-01-29T07:03:33;8.53;;;6.40;;
5054;SDS011;13829;48.990;8.346;2023-01-29T07:06:01;7.97;;;6.83;;
5054;SDS011;13829;48.990;8.346;2023-01-29T07:08:29;8.60;;;7.27;;
5054;SDS011;13829;48.990;8.346;2023-01-29T07:10:57;8.07;;;6.00;;
5054;SDS011;13829;48.990;8.346;2023-01-29T07:13:25;8.10;;;6.30;;
5054;SDS011;13829;48.990;8.346;2023-01-29T07:15:52;7.80;;;6.57;;
5054;SDS011;13829;48.990;8.346;2023-01-29T07:18:19;8.90;;;6.67;;
5054;SDS011;13829;48.990;8.346;2023-01-29T07:20:47;7.70;;;6.33;;
5054;SDS011;13829;48.990;8.346;2023-01-29T07:23:14;8.20;;;6.73;;
5054;SDS011;13829;48.990;8.346;2023-01-29T07:25:41;7.43;;;6.50;;
5054;SDS011;13829;48.990;8.346;2023-01-29T07:28:08;8.37;;;6.67;;
5054;SDS011;13829;48.990;8.346;2023-01-29T07:30:36;8.17;;;6.37;;
5054;SDS011;13829;48.990;8.346;2023-01-29T07:33:03;9.40;;;7.00;;
5054;SDS011;13829;48.990;8.346;2023-01-29T07:35:34;8.00;;;6.90;;
5054;SDS011;13829;48.990;8.346;2023-01-29T07:38:04;8.40;;;6.63;;
5054;SDS011;13829;48.990;8.346;2023-01-29T07:40:31;8.73;;;7.17;;
5054;SDS011;13829;48.990;8.346;2023-01-29T07:42:58;8.03;;;6.50;;
5054;SDS011;13829;48.990;8.346;2023-01-29T07:45:27;7.87;;;6.40;;
5054;SDS011;13829;48.990;8.346;2023-01-29T07:47:55;8.07;;;6.53;;
5054;SDS011;13829;48.990;8.346;2023-01-29T07:50:23;8.10;;;6.27;;
5054;SDS011;13829;48.990;8.346;2023-01-29T07:52:52;9.00;;;7.20;;
5054;SDS011;13829;48.990;8.346;2023-01-29T07:55:21;9.00;;;7.00;;
5054;SDS011;13829;48.990;8.346;2023-01-29T07:57:53;11.20;;;7.80;;
5054;SDS011;13829;48.990;8.346;2023-01-29T08:00:21;8.20;;;6.47;;
5054;SDS011;13829;48.990;8.346;2023-01-29T08:02:48;11.20;;;7.93;;
5054;SDS011;13829;48.990;8.346;2023-01-29T08:05:15;9.00;;;7.70;;
5054;SDS011;13829;48.990;8.346;2023-01-29T08:07:42;14.37;;;9.80;;
5054;SDS011;13829;48.990;8.346;2023-01-29T08:10:10;13.13;;;9.23;;
5054;SDS011;13829;48.990;8.346;2023-01-29T08:12:38;9.67;;;7.23;;
5054;SDS011;13829;48.990;8.346;2023-01-29T08:15:06;11.93;;;8.47;;
5054;SDS011;13829;48.990;8.346;2023-01-29T08:17:34;16.93;;;10.07;;
5054;SDS011;13829;48.990;8.346;2023-01-29T08:20:03;11.50;;;10.20;;
5054;SDS011;13829;48.990;8.346;2023-01-29T08:22:32;20.43;;;10.53;;
5054;SDS011;13829;48.990;8.346;2023-01-29T08:24:59;11.87;;;7.60;;
5054;SDS011;13829;48.990;8.346;2023-01-29T08:27:25;11.80;;;8.80;;
5054;SDS011;13829;48.990;8.346;2023-01-29T08:29:54;10.57;;;7.67;;
5054;SDS011;13829;48.990;8.346;2023-01-29T08:32:21;8.27;;;7.40;;
5054;SDS011;13829;48.990;8.346;2023-01-29T08:34:47;10.60;;;6.43;;
5054;SDS011;13829;48.990;8.346;2023-01-29T08:37:14;7.83;;;6.10;;
5054;SDS011;13829;48.990;8.346;2023-01-29T08:39:41;7.60;;;6.40;;
5054;SDS011;13829;48.990;8.346;2023-01-29T08:42:08;6.70;;;6.10;;
5054;SDS011;13829;48.990;8.346;2023-01-29T08:44:35;8.47;;;7.27;;
5054;SDS011;13829;48.990;8.346;2023-01-29T08:47:03;7.23;;;6.53;;
5054;SDS011;13829;48.990;8.346;2023-01-29T08:49:30;7.37;;;6.30;;
5054;SDS011;13829;48.990;8.346;2023-01-29T08:51:57;7.60;;;6.07;;
5054;SDS011;13829;48.990;8.346;2023-01-29T08:54:24;6.97;;;5.90;;
5054;SDS011;13829;48.990;8.346;2023-01-29T08:56:51;7.33;;;6.30;;
5054;SDS011;13829;48.990;8.346;2023-01-29T08:59:18;7.23;;;5.77;;
5054;SDS011;13829;48.990;8.346;2023-01-29T09:01:46;6.23;;;5.57;;
5054;SDS011;13829;48.990;8.346;2023-01-29T09:04:15;7.33;;;6.33;;
5054;SDS011;13829;48.990;8.346;2023-01-29T09:06:41;8.90;;;6.57;;
5054;SDS011;13829;48.990;8.346;2023-01-29T09:09:09;7.60;;;6.70;;
5054;SDS011;13829;48.990;8.346;2023-01-29T09:11:36;6.33;;;5.73;;
5054;SDS011;13829;48.990;8.346;2023-01-29T09:14:04;7.97;;;5.67;;
5054;SDS011;13829;48.990;8.346;2023-01-29T09:16:31;7.07;;;6.20;;
5054;SDS011;13829;48.990;8.346;2023-01-29T09:18:58;6.90;;;6.13;;
5054;SDS011;13829;48.990;8.346;2023-01-29T09:21:26;7.47;;;6.77;;
5054;SDS011;13829;48.990;8.346;2023-01-29T09:23:53;6.93;;;6.10;;
5054;SDS011;13829;48.990;8.346;2023-01-29T09:26:20;7.97;;;5.63;;
5054;SDS011;13829;48.990;8.346;2023-01-29T09:28:47;7.97;;;6.80;;
5054;SDS011;13829;48.990;8.346;2023-01-29T09:31:14;8.87;;;6.43;;
5054;SDS011;13829;48.990;8.346;2023-01-29T09:33:41;8.13;;;6.13;;
5054;SDS011;13829;48.990;8.346;2023-01-29T09:36:08;6.63;;;5.93;;
5054;SDS011;13829;48.990;8.346;2023-01-29T09:38:36;7.30;;;6.07;;
5054;SDS011;13829;48.990;8.346;2023-01-29T09:41:05;7.13;;;6.23;;
5054;SDS011;13829;48.990;8.346;2023-01-29T09:43:52;11.50;;;9.20;;
5054;SDS011;13829;48.990;8.346;2023-01-29T09:46:26;7.03;;;6.33;;
5054;SDS011;13829;48.990;8.346;2023-01-29T09:49:02;8.17;;;6.80;;
5054;SDS011;13829;48.990;8.346;2023-01-29T09:51:39;10.37;;;6.47;;
5054;SDS011;13829;48.990;8.346;2023-01-29T09:54:15;7.70;;;6.13;;
5054;SDS011;13829;48.990;8.346;2023-01-29T09:56:48;8.27;;;6.67;;
5054;SDS011;13829;48.990;8.346;2023-01-29T09:59:20;9.63;;;6.97;;
5054;SDS011;13829;48.990;8.346;2023-01-29T10:01:53;10.57;;;6.90;;
5054;SDS011;13829;48.990;8.346;2023-01-29T10:04:43;8.60;;;6.60;;
5054;SDS011;13829;48.990;8.346;2023-01-29T10:07:41;6.93;;;6.10;;
5054;SDS011;13829;48.990;8.346;2023-01-29T10:10:45;7.27;;;6.47;;
5054;SDS011;13829;48.990;8.346;2023-01-29T10:13:22;9.63;;;6.90;;
5054;SDS011;13829;48.990;8.346;2023-01-29T10:16:04;9.20;;;6.77;;
5054;SDS011;13829;48.990;8.346;2023-01-29T10:25:19;6.73;;;4.70;;
5054;SDS011;13829;48.990;8.346;2023-01-29T10:27:50;5.70;;;5.17;;
5054;SDS011;13829;48.990;8.346;2023-01-29T10:30:21;6.07;;;5.47;;
5054;SDS011;13829;48.990;8.346;2023-01-29T10:32:58;6.07;;;5.37;;
5054;SDS011;13829;48.990;8.346;2023-01-29T10:35:28;5.37;;;4.87;;
5054;SDS011;13829;48.990;8.346;2023-01-29T10:38:07;7.37;;;5.70;;
5054;SDS011;13829;48.990;8.346;2023-01-29T10:40:51;7.23;;;5.47;;
5054;SDS011;13829;48.990;8.346;2023-01-29T10:43:31;9.23;;;7.80;;
5054;SDS011;13829;48.990;8.346;2023-01-29T10:46:14;6.67;;;5.93;;
5054;SDS011;13829;48.990;8.346;2023-01-29T10:49:03;5.50;;;4.87;;
5054;SDS011;13829;48.990;8.346;2023-01-29T10:51:50;6.10;;;5.50;;
5054;SDS011;13829;48.990;8.346;2023-01-29T10:54:36;6.67;;;5.53;;
5054;SDS011;13829;48.990;8.346;2023-01-29T10:57:18;4.67;;;4.17;;
5054;SDS011;13829;48.990;8.346;2023-01-29T11:00:06;6.13;;;4.90;;
5054;SDS011;13829;48.990;8.346;2023-01-29T11:02:41;6.10;;;5.20;;
5054;SDS011;13829;48.990;8.346;2023-01-29T11:05:15;7.17;;;5.70;;
5054;SDS011;13829;48.990;8.346;2023-01-29T11:07:51;6.97;;;5.80;;
5054;SDS011;13829;48.990;8.346;2023-01-29T11:10:31;6.70;;;5.80;;
5054;SDS011;13829;48.990;8.346;2023-01-29T11:13:07;7.70;;;5.80;;
5054;SDS011;13829;48.990;8.346;2023-01-29T11:15:42;6.30;;;5.57;;
5054;SDS011;13829;48.990;8.346;2023-01-29T11:18:10;6.30;;;5.70;;
5054;SDS011;13829;48.990;8.346;2023-01-29T11:20:40;6.20;;;5.60;;
5054;SDS011;13829;48.990;8.346;2023-01-29T11:23:22;7.27;;;6.03;;
5054;SDS011;13829;48.990;8.346;2023-01-29T11:25:53;7.40;;;6.00;;
5054;SDS011;13829;48.990;8.346;2023-01-29T11:28:35;8.07;;;6.33;;
5054;SDS011;13829;48.990;8.346;2023-01-29T11:31:15;6.73;;;5.73;;
5054;SDS011;13829;48.990;8.346;2023-01-29T11:33:46;5.87;;;5.30;;
5054;SDS011;13829;48.990;8.346;2023-01-29T11:36:21;6.17;;;5.57;;
5054;SDS011;13829;48.990;8.346;2023-01-29T11:39:16;6.93;;;6.03;;
5054;SDS011;13829;48.990;8.346;2023-01-29T11:41:47;7.70;;;5.23;;
5054;SDS011;13829;48.990;8.346;2023-01-29T11:44:19;6.60;;;5.90;;
5054;SDS011;13829;48.990;8.346;2023-01-29T11:46:53;6.50;;;5.50;;
5054;SDS011;13829;48.990;8.346;2023-01-29T11:49:27;4.63;;;4.10;;
5054;SDS011;13829;48.990;8.346;2023-01-29T11:52:00;5.10;;;4.57;;
5054;SDS011;13829;48.990;8.346;2023-01-29T11:54:32;5.97;;;4.07;;
5054;SDS011;13829;48.990;8.346;2023-01-29T11:57:05;5.13;;;4.40;;
5054;SDS011;13829;48.990;8.346;2023-01-29T11:59:54;5.43;;;4.67;;
5054;SDS011;13829;48.990;8.346;2023-01-29T12:02:29;4.67;;;4.27;;
5054;SDS011;13829;48.990;8.346;2023-01-29T12:05:03;6.20;;;5.10;;
5054;SDS011;13829;48.990;8.346;2023-01-29T12:07:40;5.00;;;4.37;;
5054;SDS011;13829;48.990;8.346;2023-01-29T12:13:04;5.90;;;4.40;;
5054;SDS011;13829;48.990;8.346;2023-01-29T12:15:44;5.27;;;4.77;;
5054;SDS011;13829;48.990;8.346;2023-01-29T12:18:17;6.03;;;4.43;;
5054;SDS011;13829;48.990;8.346;2023-01-29T12:20:56;4.90;;;4.30;;
5054;SDS011;13829;48.990;8.346;2023-01-29T12:23:30;5.03;;;4.53;;
5054;SDS011;13829;48.990;8.346;2023-01-29T12:26:08;5.30;;;4.47;;
5054;SDS011;13829;48.990;8.346;2023-01-29T12:28:41;4.67;;;4.20;;
5054;SDS011;13829;48.990;8.346;2023-01-29T12:31:23;4.60;;;3.90;;
5054;SDS011;13829;48.990;8.346;2023-01-29T12:34:03;5.37;;;4.60;;
5054;SDS011;13829;48.990;8.346;2023-01-29T12:36:41;5.30;;;4.80;;
5054;SDS011;13829;48.990;8.346;2023-01-29T12:39:17;5.00;;;4.50;;
5054;SDS011;13829;48.990;8.346;2023-01-29T12:41:46;4.73;;;4.33;;
5054;SDS011;13829;48.990;8.346;2023-01-29T12:44:23;5.40;;;4.23;;
5054;SDS011;13829;48.990;8.346;2023-01-29T12:46:59;4.83;;;4.33;;
5054;SDS011;13829;48.990;8.346;2023-01-29T12:49:34;4.87;;;4.40;;
5054;SDS011;13829;48.990;8.346;2023-01-29T12:52:06;6.47;;;4.80;;
5054;SDS011;13829;48.990;8.346;2023-01-29T12:54:41;4.53;;;4.10;;
5054;SDS011;13829;48.990;8.346;2023-01-29T12:57:17;4.53;;;4.00;;
5054;SDS011;13829;48.990;8.346;2023-01-29T12:59:53;5.83;;;5.23;;
5054;SDS011;13829;48.990;8.346;2023-01-29T13:02:30;5.50;;;4.53;;
5054;SDS011;13829;48.990;8.346;2023-01-29T13:05:06;5.10;;;4.20;;
5054;SDS011;13829;48.990;8.346;2023-01-29T13:07:49;5.17;;;4.67;;
5054;SDS011;13829;48.990;8.346;2023-01-29T13:10:24;6.23;;;5.23;;
5054;SDS011;13829;48.990;8.346;2023-01-29T13:12:58;5.37;;;4.87;;
5054;SDS011;13829;48.990;8.346;2023-01-29T13:15:33;5.77;;;5.10;;
5054;SDS011;13829;48.990;8.346;2023-01-29T13:18:13;5.60;;;4.10;;
5054;SDS011;13829;48.990;8.346;2023-01-29T13:21:03;6.43;;;5.27;;
5054;SDS011;13829;48.990;8.346;2023-01-29T13:23:31;5.80;;;5.07;;
5054;SDS011;13829;48.990;8.346;2023-01-29T13:26:03;5.43;;;4.87;;
5054;SDS011;13829;48.990;8.346;2023-01-29T13:28:31;7.30;;;4.60;;
5054;SDS011;13829;48.990;8.346;2023-01-29T13:31:12;4.67;;;4.20;;
5054;SDS011;13829;48.990;8.346;2023-01-29T13:33:51;5.90;;;4.70;;
5054;SDS011;13829;48.990;8.346;2023-01-29T13:36:28;6.10;;;5.10;;
5054;SDS011;13829;48.990;8.346;2023-01-29T13:38:58;4.80;;;4.33;;
5054;SDS011;13829;48.990;8.346;2023-01-29T13:41:31;5.30;;;4.77;;
5054;SDS011;13829;48.990;8.346;2023-01-29T13:44:02;5.10;;;4.40;;
5054;SDS011;13829;48.990;8.346;2023-01-29T13:46:33;4.80;;;4.17;;
5054;SDS011;13829;48.990;8.346;2023-01-29T13:49:11;4.87;;;4.33;;
5054;SDS011;13829;48.990;8.346;2023-01-29T13:51:55;4.50;;;4.10;;
5054;SDS011;13829;48.990;8.346;2023-01-29T13:54:24;4.97;;;4.47;;
5054;SDS011;13829;48.990;8.346;2023-01-29T13:56:56;4.77;;;4.37;;
5054;SDS011;13829;48.990;8.346;2023-01-29T14:02:21;4.93;;;4.10;;
5054;SDS011;13829;48.990;8.346;2023-01-29T14:05:05;4.70;;;4.20;;
5054;SDS011;13829;48.990;8.346;2023-01-29T14:08:07;5.13;;;4.63;;
5054;SDS011;13829;48.990;8.346;2023-01-29T14:13:59;6.93;;;5.03;;
5054;SDS011;13829;48.990;8.346;2023-01-29T14:16:33;5.43;;;4.80;;
5054;SDS011;13829;48.990;8.346;2023-01-29T14:19:01;6.97;;;4.93;;
5054;SDS011;13829;48.990;8.346;2023-01-29T14:21:31;5.90;;;4.47;;
5054;SDS011;13829;48.990;8.346;2023-01-29T14:24:10;5.10;;;4.60;;
5054;SDS011;13829;48.990;8.346;2023-01-29T14:26:45;4.87;;;4.30;;
5054;SDS011;13829;48.990;8.346;2023-01-29T14:29:19;6.10;;;5.03;;
5054;SDS011;13829;48.990;8.346;2023-01-29T14:31:52;7.20;;;5.20;;
5054;SDS011;13829;48.990;8.346;2023-01-29T14:34:24;5.93;;;5.33;;
5054;SDS011;13829;48.990;8.346;2023-01-29T14:36:56;5.50;;;5.00;;
5054;SDS011;13829;48.990;8.346;2023-01-29T14:39:42;6.73;;;5.60;;
5054;SDS011;13829;48.990;8.346;2023-01-29T14:42:15;6.33;;;5.73;;
5054;SDS011;13829;48.990;8.346;2023-01-29T14:47:59;6.67;;;5.73;;
5054;SDS011;13829;48.990;8.346;2023-01-29T14:50:49;6.93;;;5.10;;
5054;SDS011;13829;48.990;8.346;2023-01-29T14:53:33;6.03;;;5.43;;
5054;SDS011;13829;48.990;8.346;2023-01-29T14:56:20;6.17;;;5.27;;
5054;SDS011;13829;48.990;8.346;2023-01-29T14:59:01;7.27;;;6.30;;
5054;SDS011;13829;48.990;8.346;2023-01-29T15:01:42;7.40;;;6.20;;
5054;SDS011;13829;48.990;8.346;2023-01-29T15:04:19;6.33;;;5.57;;
5054;SDS011;13829;48.990;8.346;2023-01-29T15:06:53;6.13;;;5.33;;
5054;SDS011;13829;48.990;8.346;2023-01-29T15:09:29;6.53;;;5.17;;
5054;SDS011;13829;48.990;8.346;2023-01-29T15:12:07;10.40;;;6.83;;
5054;SDS011;13829;48.990;8.346;2023-01-29T15:14:46;8.27;;;6.77;;
5054;SDS011;13829;48.990;8.346;2023-01-29T15:17:25;6.33;;;5.70;;
5054;SDS011;13829;48.990;8.346;2023-01-29T15:19:57;6.93;;;6.00;;
5054;SDS011;13829;48.990;8.346;2023-01-29T15:22:24;7.53;;;6.47;;
5054;SDS011;13829;48.990;8.346;2023-01-29T15:25:04;8.67;;;6.53;;
5054;SDS011;13829;48.990;8.346;2023-01-29T15:27:41;8.03;;;6.80;;
5054;SDS011;13829;48.990;8.346;2023-01-29T15:30:13;8.43;;;7.10;;
5054;SDS011;13829;48.990;8.346;2023-01-29T15:32:44;9.13;;;7.63;;
5054;SDS011;13829;48.990;8.346;2023-01-29T15:35:18;8.93;;;7.30;;
5054;SDS011;13829;48.990;8.346;2023-01-29T15:37:57;8.27;;;6.40;;
5054;SDS011;13829;48.990;8.346;2023-01-29T15:40:27;7.07;;;5.63;;
5054;SDS011;13829;48.990;8.346;2023-01-29T15:42:56;7.00;;;5.47;;
5054;SDS011;13829;48.990;8.346;2023-01-29T15:45:24;6.97;;;5.90;;
5054;SDS011;13829;48.990;8.346;2023-01-29T15:47:56;6.50;;;5.60;;
5054;SDS011;13829;48.990;8.346;2023-01-29T15:50:29;6.90;;;6.03;;
5054;SDS011;13829;48.990;8.346;2023-01-29T15:53:02;7.03;;;5.83;;
5054;SDS011;13829;48.990;8.346;2023-01-29T15:55:38;7.13;;;6.30;;
5054;SDS011;13829;48.990;8.346;2023-01-29T15:58:07;7.63;;;6.03;;
5054;SDS011;13829;48.990;8.346;2023-01-29T16:00:47;7.23;;;6.10;;